メインページ
METAR-TAF:

METAR-TAF

空港 :

ルクセンブルク, ルクセンブルク

ルクセンブルク-フィンデル空港

緯度: 49-37N, 経度: 006-13E, 海抜: 376m

現時点の気象観測

当レポートは15分前の04:50(UTC)に作成
の風 7kt、南/南東から南/南西の間で変化する
気温 10°C
湿度 93%
気圧 1014 hPa
視程: 5000m
高度100ftの雲はほとんどない
高度200ftの雲は散在している
高度700ftの千切れ雲あり

METAR: ELLX 210450Z 18007KT 150V210 5000 BR FEW001 SCT002 BKN007 10/09 Q1014 NOSIG

時間: 07:05 (05:05 UTC)

予報

当レポートは6時間5分前の23:00(UTC)に作成
予報は21日の 00時(UTC)から 22日の 06時(UTC)まで有効
南/南西の風 5kt
視程10km以上
1,500メートル以下は雲なし、積乱雲なし
確率 40% :
21日の 02時(UTC)から 21日の 06時(UTC)まで一時的に
視程: 3000m
高度500ftの千切れ雲あり
21日の 07時(UTC)から 21日の 09時(UTC)まで一時的に
高度800ftの千切れ雲あり
21日の 12時(UTC)から 21日の 18時(UTC)まで一時的に
高度1500ftの雲は散在している, 塔状積雲.
22日の 00時(UTC)から 22日の 06時(UTC)まで一時的に
南西の風 15kt、最大25ktの突風を伴う
高度1400ftの雲は散在している, 塔状積雲.
にわか雨

TAF: ELLX 202300Z 2100/2206 21005KT CAVOK PROB40 TEMPO 2102/2106 3000 BR BKN005 TEMPO 2107/2109 RA BKN008 TEMPO 2112/2118 SCT015TCU TEMPO 2200/2206 23015G25KT SHRA SCT014TCU

4,000以上の空港の気象観測と天気予報(METAR報とTAF報)

利用可能な観測所は地図上に黄色い丸と赤い丸で示す。

丸の上にカーソルを重ねると観測所名を参照できる。

次にクリックすると気象観測と天気予報を参照できる。

マップの切り替え:黒色「×」印の緑ボタンをクリックして拡大、「-」印の緑ボタンをクリックして縮小、緑色の三角印をクリックして隣りの地図に切り替え


METAR-TAF: